sensor_id;sensor_type;location;lat;lon;timestamp;temperature;humidity
52058;DHT22;38063;53.210;6.504;2022-09-27T00:01:59;10.10;99.90
52058;DHT22;38063;53.210;6.504;2022-09-27T00:04:25;10.00;99.90
52058;DHT22;38063;53.210;6.504;2022-09-27T00:06:52;10.10;99.90
52058;DHT22;38063;53.210;6.504;2022-09-27T00:09:17;10.10;99.90
52058;DHT22;38063;53.210;6.504;2022-09-27T00:11:43;10.10;99.90
52058;DHT22;38063;53.210;6.504;2022-09-27T00:14:14;10.10;99.90
52058;DHT22;38063;53.210;6.504;2022-09-27T00:16:41;10.10;99.90
52058;DHT22;38063;53.210;6.504;2022-09-27T00:19:11;10.10;99.90
52058;DHT22;38063;53.210;6.504;2022-09-27T00:21:38;10.10;99.90
52058;DHT22;38063;53.210;6.504;2022-09-27T00:24:04;10.10;99.90
52058;DHT22;38063;53.210;6.504;2022-09-27T00:26:30;10.00;99.90
52058;DHT22;38063;53.210;6.504;2022-09-27T00:28:56;10.00;99.90
52058;DHT22;38063;53.210;6.504;2022-09-27T00:31:25;10.20;99.90
52058;DHT22;38063;53.210;6.504;2022-09-27T00:33:52;10.00;99.90
52058;DHT22;38063;53.210;6.504;2022-09-27T00:36:19;10.00;99.90
52058;DHT22;38063;53.210;6.504;2022-09-27T00:38:46;9.90;99.90
52058;DHT22;38063;53.210;6.504;2022-09-27T00:41:23;9.90;99.90
52058;DHT22;38063;53.210;6.504;2022-09-27T00:43:52;9.90;99.90
52058;DHT22;38063;53.210;6.504;2022-09-27T00:51:47;9.80;99.90
52058;DHT22;38063;53.210;6.504;2022-09-27T00:54:16;9.80;99.90
52058;DHT22;38063;53.210;6.504;2022-09-27T00:56:43;9.70;99.90
52058;DHT22;38063;53.210;6.504;2022-09-27T01:01:41;9.70;99.90
52058;DHT22;38063;53.210;6.504;2022-09-27T01:04:12;9.70;99.90
52058;DHT22;38063;53.210;6.504;2022-09-27T01:06:39;9.60;99.90
52058;DHT22;38063;53.210;6.504;2022-09-27T01:09:06;9.60;99.90
52058;DHT22;38063;53.210;6.504;2022-09-27T01:11:50;9.70;99.90
52058;DHT22;38063;53.210;6.504;2022-09-27T01:14:32;9.60;99.90
52058;DHT22;38063;53.210;6.504;2022-09-27T01:17:13;9.50;99.90
52058;DHT22;38063;53.210;6.504;2022-09-27T01:26:10;9.60;99.90
52058;DHT22;38063;53.210;6.504;2022-09-27T01:29:10;9.60;99.90
52058;DHT22;38063;53.210;6.504;2022-09-27T01:37:26;9.70;99.90
52058;DHT22;38063;53.210;6.504;2022-09-27T01:39:59;9.70;99.90
52058;DHT22;38063;53.210;6.504;2022-09-27T01:42:40;9.70;99.90
52058;DHT22;38063;53.210;6.504;2022-09-27T01:45:20;9.70;99.90
52058;DHT22;38063;53.210;6.504;2022-09-27T01:47:51;9.70;99.90
52058;DHT22;38063;53.210;6.504;2022-09-27T01:50:23;9.70;99.90
52058;DHT22;38063;53.210;6.504;2022-09-27T01:53:02;9.80;99.90
52058;DHT22;38063;53.210;6.504;2022-09-27T01:55:32;9.80;99.90
52058;DHT22;38063;53.210;6.504;2022-09-27T01:58:09;9.80;99.90
52058;DHT22;38063;53.210;6.504;2022-09-27T02:00:37;9.90;99.90
52058;DHT22;38063;53.210;6.504;2022-09-27T02:03:09;9.70;99.90
52058;DHT22;38063;53.210;6.504;2022-09-27T02:05:43;9.70;99.90
52058;DHT22;38063;53.210;6.504;2022-09-27T02:08:22;9.70;99.90
52058;DHT22;38063;53.210;6.504;2022-09-27T02:10:51;9.70;99.90
52058;DHT22;38063;53.210;6.504;2022-09-27T02:13:20;9.70;99.90
52058;DHT22;38063;53.210;6.504;2022-09-27T02:19:13;9.60;99.90
52058;DHT22;38063;53.210;6.504;2022-09-27T02:21:46;9.60;99.90
52058;DHT22;38063;53.210;6.504;2022-09-27T02:24:18;9.60;99.90
52058;DHT22;38063;53.210;6.504;2022-09-27T02:26:48;9.60;99.90
52058;DHT22;38063;53.210;6.504;2022-09-27T02:29:23;9.50;99.90
52058;DHT22;38063;53.210;6.504;2022-09-27T02:31:52;9.50;99.90
52058;DHT22;38063;53.210;6.504;2022-09-27T02:34:22;9.50;99.90
52058;DHT22;38063;53.210;6.504;2022-09-27T02:36:48;9.50;99.90
52058;DHT22;38063;53.210;6.504;2022-09-27T02:39:18;9.50;99.90
52058;DHT22;38063;53.210;6.504;2022-09-27T02:41:44;9.50;99.90
52058;DHT22;38063;53.210;6.504;2022-09-27T02:44:13;9.40;99.90
52058;DHT22;38063;53.210;6.504;2022-09-27T03:00:02;9.30;99.90
52058;DHT22;38063;53.210;6.504;2022-09-27T03:05:14;9.30;99.90
52058;DHT22;38063;53.210;6.504;2022-09-27T03:07:41;9.30;99.90
52058;DHT22;38063;53.210;6.504;2022-09-27T03:10:18;9.30;99.90
52058;DHT22;38063;53.210;6.504;2022-09-27T03:12:44;9.30;99.90
52058;DHT22;38063;53.210;6.504;2022-09-27T03:15:10;9.80;99.90
52058;DHT22;38063;53.210;6.504;2022-09-27T03:17:35;9.30;99.90
52058;DHT22;38063;53.210;6.504;2022-09-27T03:20:01;9.30;99.90
52058;DHT22;38063;53.210;6.504;2022-09-27T03:22:27;9.30;99.90
52058;DHT22;38063;53.210;6.504;2022-09-27T03:24:52;9.30;99.90
52058;DHT22;38063;53.210;6.504;2022-09-27T03:27:18;9.20;99.90
52058;DHT22;38063;53.210;6.504;2022-09-27T03:29:44;9.20;99.90
52058;DHT22;38063;53.210;6.504;2022-09-27T03:32:09;9.20;99.90
52058;DHT22;38063;53.210;6.504;2022-09-27T03:34:35;9.10;99.90
52058;DHT22;38063;53.210;6.504;2022-09-27T03:37:01;9.10;99.90
52058;DHT22;38063;53.210;6.504;2022-09-27T03:39:26;9.00;99.90
52058;DHT22;38063;53.210;6.504;2022-09-27T03:41:52;9.30;99.90
52058;DHT22;38063;53.210;6.504;2022-09-27T03:44:18;9.00;99.90
52058;DHT22;38063;53.210;6.504;2022-09-27T03:46:43;9.00;99.90
52058;DHT22;38063;53.210;6.504;2022-09-27T03:49:09;9.00;99.90
52058;DHT22;38063;53.210;6.504;2022-09-27T03:51:35;9.00;99.90
52058;DHT22;38063;53.210;6.504;2022-09-27T03:54:00;9.00;99.90
52058;DHT22;38063;53.210;6.504;2022-09-27T03:56:26;9.00;99.90
52058;DHT22;38063;53.210;6.504;2022-09-27T03:58:52;9.00;99.90
52058;DHT22;38063;53.210;6.504;2022-09-27T04:01:17;9.00;99.90
52058;DHT22;38063;53.210;6.504;2022-09-27T04:03:43;9.00;99.90
52058;DHT22;38063;53.210;6.504;2022-09-27T04:06:10;9.10;99.90
52058;DHT22;38063;53.210;6.504;2022-09-27T04:08:35;9.10;99.90
52058;DHT22;38063;53.210;6.504;2022-09-27T04:11:01;9.10;99.90
52058;DHT22;38063;53.210;6.504;2022-09-27T04:13:28;9.10;99.90
52058;DHT22;38063;53.210;6.504;2022-09-27T04:15:53;9.10;99.90
52058;DHT22;38063;53.210;6.504;2022-09-27T04:18:19;9.10;99.90
52058;DHT22;38063;53.210;6.504;2022-09-27T04:20:45;9.10;99.90
52058;DHT22;38063;53.210;6.504;2022-09-27T04:23:10;9.10;99.90
52058;DHT22;38063;53.210;6.504;2022-09-27T04:25:36;9.10;99.90
52058;DHT22;38063;53.210;6.504;2022-09-27T04:28:01;9.00;99.90
52058;DHT22;38063;53.210;6.504;2022-09-27T04:30:28;9.00;99.90
52058;DHT22;38063;53.210;6.504;2022-09-27T04:32:54;9.10;99.90
52058;DHT22;38063;53.210;6.504;2022-09-27T04:35:19;9.00;99.90
52058;DHT22;38063;53.210;6.504;2022-09-27T04:38:04;9.10;99.90
52058;DHT22;38063;53.210;6.504;2022-09-27T04:40:33;9.10;99.90
52058;DHT22;38063;53.210;6.504;2022-09-27T04:43:00;9.10;99.90
52058;DHT22;38063;53.210;6.504;2022-09-27T04:45:26;9.10;99.90
52058;DHT22;38063;53.210;6.504;2022-09-27T04:47:51;9.10;99.90
52058;DHT22;38063;53.210;6.504;2022-09-27T04:50:17;9.10;99.90
52058;DHT22;38063;53.210;6.504;2022-09-27T04:52:48;9.10;99.90
52058;DHT22;38063;53.210;6.504;2022-09-27T04:55:14;9.20;99.90
52058;DHT22;38063;53.210;6.504;2022-09-27T04:57:40;9.20;99.90
52058;DHT22;38063;53.210;6.504;2022-09-27T05:00:06;9.30;99.90
52058;DHT22;38063;53.210;6.504;2022-09-27T05:02:32;9.20;99.90
52058;DHT22;38063;53.210;6.504;2022-09-27T05:04:58;9.20;99.90
52058;DHT22;38063;53.210;6.504;2022-09-27T05:07:28;9.20;99.90
52058;DHT22;38063;53.210;6.504;2022-09-27T05:09:54;9.20;99.90
52058;DHT22;38063;53.210;6.504;2022-09-27T05:12:21;9.20;99.90
52058;DHT22;38063;53.210;6.504;2022-09-27T05:14:47;9.20;99.90
52058;DHT22;38063;53.210;6.504;2022-09-27T05:17:12;9.20;99.90
52058;DHT22;38063;53.210;6.504;2022-09-27T05:19:38;9.20;99.90
52058;DHT22;38063;53.210;6.504;2022-09-27T05:22:05;9.20;99.90
52058;DHT22;38063;53.210;6.504;2022-09-27T05:24:31;9.20;99.90
52058;DHT22;38063;53.210;6.504;2022-09-27T05:26:58;9.20;99.90
52058;DHT22;38063;53.210;6.504;2022-09-27T05:29:24;9.20;99.90
52058;DHT22;38063;53.210;6.504;2022-09-27T05:31:49;9.20;99.90
52058;DHT22;38063;53.210;6.504;2022-09-27T05:34:15;9.10;99.90
52058;DHT22;38063;53.210;6.504;2022-09-27T05:36:46;9.10;99.90
52058;DHT22;38063;53.210;6.504;2022-09-27T05:39:12;9.10;99.90
52058;DHT22;38063;53.210;6.504;2022-09-27T05:41:38;9.10;99.90
52058;DHT22;38063;53.210;6.504;2022-09-27T05:44:05;9.30;99.90
52058;DHT22;38063;53.210;6.504;2022-09-27T05:46:31;9.20;99.90
52058;DHT22;38063;53.210;6.504;2022-09-27T05:48:56;9.20;99.90
52058;DHT22;38063;53.210;6.504;2022-09-27T05:51:22;9.20;99.90
52058;DHT22;38063;53.210;6.504;2022-09-27T05:53:48;9.30;99.90
52058;DHT22;38063;53.210;6.504;2022-09-27T05:56:13;9.30;99.90
52058;DHT22;38063;53.210;6.504;2022-09-27T05:58:39;9.30;99.90
52058;DHT22;38063;53.210;6.504;2022-09-27T06:01:08;9.30;99.90
52058;DHT22;38063;53.210;6.504;2022-09-27T06:03:35;9.30;99.90
52058;DHT22;38063;53.210;6.504;2022-09-27T06:06:01;9.40;99.90
52058;DHT22;38063;53.210;6.504;2022-09-27T06:08:32;9.40;99.90
52058;DHT22;38063;53.210;6.504;2022-09-27T06:11:05;9.50;99.90
52058;DHT22;38063;53.210;6.504;2022-09-27T06:13:31;9.50;99.90
52058;DHT22;38063;53.210;6.504;2022-09-27T06:16:01;9.50;99.90
52058;DHT22;38063;53.210;6.504;2022-09-27T06:18:27;9.50;99.90
52058;DHT22;38063;53.210;6.504;2022-09-27T06:20:53;9.50;99.90
52058;DHT22;38063;53.210;6.504;2022-09-27T06:23:21;9.40;99.90
52058;DHT22;38063;53.210;6.504;2022-09-27T06:25:48;9.40;99.90
52058;DHT22;38063;53.210;6.504;2022-09-27T06:28:14;9.30;99.90
52058;DHT22;38063;53.210;6.504;2022-09-27T06:30:45;9.30;99.90
52058;DHT22;38063;53.210;6.504;2022-09-27T06:33:13;9.30;99.90
52058;DHT22;38063;53.210;6.504;2022-09-27T06:35:40;9.30;99.90
52058;DHT22;38063;53.210;6.504;2022-09-27T06:38:14;9.30;99.90
52058;DHT22;38063;53.210;6.504;2022-09-27T06:40:41;9.30;99.90
52058;DHT22;38063;53.210;6.504;2022-09-27T06:43:15;9.30;99.90
52058;DHT22;38063;53.210;6.504;2022-09-27T06:45:42;9.30;99.90
52058;DHT22;38063;53.210;6.504;2022-09-27T06:48:09;9.30;99.90
52058;DHT22;38063;53.210;6.504;2022-09-27T06:50:37;9.30;99.90
52058;DHT22;38063;53.210;6.504;2022-09-27T06:53:04;9.30;99.90
52058;DHT22;38063;53.210;6.504;2022-09-27T06:55:30;9.30;99.90
52058;DHT22;38063;53.210;6.504;2022-09-27T06:57:58;9.30;99.90
52058;DHT22;38063;53.210;6.504;2022-09-27T07:00:43;9.30;99.90
52058;DHT22;38063;53.210;6.504;2022-09-27T07:03:11;9.40;99.90
52058;DHT22;38063;53.210;6.504;2022-09-27T07:05:38;9.40;99.90
52058;DHT22;38063;53.210;6.504;2022-09-27T07:08:04;9.40;99.90
52058;DHT22;38063;53.210;6.504;2022-09-27T07:10:32;9.40;99.90
52058;DHT22;38063;53.210;6.504;2022-09-27T07:13:09;9.50;99.90
52058;DHT22;38063;53.210;6.504;2022-09-27T07:15:37;9.50;99.90
52058;DHT22;38063;53.210;6.504;2022-09-27T07:18:05;9.50;99.90
52058;DHT22;38063;53.210;6.504;2022-09-27T07:20:32;9.50;99.90
52058;DHT22;38063;53.210;6.504;2022-09-27T07:23:00;9.50;99.90
52058;DHT22;38063;53.210;6.504;2022-09-27T07:25:26;9.60;99.90
52058;DHT22;38063;53.210;6.504;2022-09-27T07:27:51;9.60;99.90
52058;DHT22;38063;53.210;6.504;2022-09-27T07:30:18;9.70;99.90
52058;DHT22;38063;53.210;6.504;2022-09-27T07:32:44;9.80;99.90
52058;DHT22;38063;53.210;6.504;2022-09-27T07:35:11;10.00;99.90
52058;DHT22;38063;53.210;6.504;2022-09-27T07:37:39;10.00;99.90
52058;DHT22;38063;53.210;6.504;2022-09-27T07:40:07;10.20;99.90
52058;DHT22;38063;53.210;6.504;2022-09-27T07:42:36;10.30;99.90
52058;DHT22;38063;53.210;6.504;2022-09-27T07:45:07;10.30;99.90
52058;DHT22;38063;53.210;6.504;2022-09-27T07:47:33;10.30;99.90
52058;DHT22;38063;53.210;6.504;2022-09-27T07:49:59;10.20;99.90
52058;DHT22;38063;53.210;6.504;2022-09-27T07:52:24;10.40;99.90
52058;DHT22;38063;53.210;6.504;2022-09-27T07:54:50;10.10;99.90
52058;DHT22;38063;53.210;6.504;2022-09-27T07:57:16;9.90;99.90
52058;DHT22;38063;53.210;6.504;2022-09-27T07:59:41;9.90;99.90
52058;DHT22;38063;53.210;6.504;2022-09-27T08:02:13;9.80;99.90
52058;DHT22;38063;53.210;6.504;2022-09-27T08:04:40;9.80;99.90
52058;DHT22;38063;53.210;6.504;2022-09-27T08:07:08;9.70;99.90
52058;DHT22;38063;53.210;6.504;2022-09-27T08:09:34;9.70;99.90
52058;DHT22;38063;53.210;6.504;2022-09-27T08:12:00;9.70;99.90
52058;DHT22;38063;53.210;6.504;2022-09-27T08:14:26;9.70;99.90
52058;DHT22;38063;53.210;6.504;2022-09-27T08:16:51;9.70;99.90
52058;DHT22;38063;53.210;6.504;2022-09-27T08:19:17;9.70;99.90
52058;DHT22;38063;53.210;6.504;2022-09-27T08:21:43;9.80;99.90
52058;DHT22;38063;53.210;6.504;2022-09-27T08:24:09;9.90;99.90
52058;DHT22;38063;53.210;6.504;2022-09-27T08:26:35;10.00;99.90
52058;DHT22;38063;53.210;6.504;2022-09-27T08:29:01;10.20;99.90
52058;DHT22;38063;53.210;6.504;2022-09-27T08:31:26;10.30;99.90
52058;DHT22;38063;53.210;6.504;2022-09-27T08:33:52;10.40;99.90
52058;DHT22;38063;53.210;6.504;2022-09-27T08:36:18;10.50;99.90
52058;DHT22;38063;53.210;6.504;2022-09-27T08:38:48;10.50;99.90
52058;DHT22;38063;53.210;6.504;2022-09-27T08:52:32;10.60;99.90
52058;DHT22;38063;53.210;6.504;2022-09-27T08:55:03;10.60;99.90
52058;DHT22;38063;53.210;6.504;2022-09-27T08:57:30;10.70;99.90
52058;DHT22;38063;53.210;6.504;2022-09-27T09:02:31;10.80;99.90
52058;DHT22;38063;53.210;6.504;2022-09-27T09:05:02;10.80;99.90
52058;DHT22;38063;53.210;6.504;2022-09-27T09:07:50;10.80;99.90
52058;DHT22;38063;53.210;6.504;2022-09-27T09:21:53;11.10;99.90
52058;DHT22;38063;53.210;6.504;2022-09-27T09:28:48;11.30;99.90
52058;DHT22;38063;53.210;6.504;2022-09-27T09:30:49;11.20;99.90
52058;DHT22;38063;53.210;6.504;2022-09-27T09:33:28;11.30;99.90
52058;DHT22;38063;53.210;6.504;2022-09-27T09:36:22;11.20;99.90
52058;DHT22;38063;53.210;6.504;2022-09-27T09:39:03;11.10;99.90
52058;DHT22;38063;53.210;6.504;2022-09-27T09:41:56;11.10;99.90
52058;DHT22;38063;53.210;6.504;2022-09-27T09:47:26;11.10;99.90
52058;DHT22;38063;53.210;6.504;2022-09-27T09:49:59;11.10;99.90
52058;DHT22;38063;53.210;6.504;2022-09-27T09:52:36;11.10;99.90
52058;DHT22;38063;53.210;6.504;2022-09-27T09:55:16;11.10;99.90
52058;DHT22;38063;53.210;6.504;2022-09-27T10:00:39;11.10;99.90
52058;DHT22;38063;53.210;6.504;2022-09-27T10:03:05;11.40;99.90
52058;DHT22;38063;53.210;6.504;2022-09-27T10:05:31;11.10;99.90
52058;DHT22;38063;53.210;6.504;2022-09-27T10:08:00;11.00;99.90
52058;DHT22;38063;53.210;6.504;2022-09-27T10:10:26;11.10;99.90
52058;DHT22;38063;53.210;6.504;2022-09-27T10:12:52;11.10;99.90
52058;DHT22;38063;53.210;6.504;2022-09-27T10:15:23;11.10;99.90
52058;DHT22;38063;53.210;6.504;2022-09-27T10:17:54;11.10;99.90
52058;DHT22;38063;53.210;6.504;2022-09-27T10:20:50;11.10;99.90
52058;DHT22;38063;53.210;6.504;2022-09-27T10:23:19;11.20;99.90
52058;DHT22;38063;53.210;6.504;2022-09-27T10:25:57;11.20;99.90
52058;DHT22;38063;53.210;6.504;2022-09-27T10:28:26;11.20;99.90
52058;DHT22;38063;53.210;6.504;2022-09-27T10:31:07;11.20;99.90
52058;DHT22;38063;53.210;6.504;2022-09-27T10:33:36;12.20;99.90
52058;DHT22;38063;53.210;6.504;2022-09-27T10:36:03;11.30;99.90
52058;DHT22;38063;53.210;6.504;2022-09-27T10:38:52;11.40;99.90
52058;DHT22;38063;53.210;6.504;2022-09-27T10:41:39;11.50;99.90
52058;DHT22;38063;53.210;6.504;2022-09-27T10:44:26;11.70;99.90
52058;DHT22;38063;53.210;6.504;2022-09-27T10:46:55;11.90;99.90
52058;DHT22;38063;53.210;6.504;2022-09-27T10:49:38;11.60;99.90
52058;DHT22;38063;53.210;6.504;2022-09-27T10:52:15;11.50;99.90
52058;DHT22;38063;53.210;6.504;2022-09-27T10:54:55;11.30;99.90
52058;DHT22;38063;53.210;6.504;2022-09-27T10:57:24;11.10;99.90
52058;DHT22;38063;53.210;6.504;2022-09-27T10:59:54;10.90;99.90
52058;DHT22;38063;53.210;6.504;2022-09-27T11:02:28;10.80;99.90
52058;DHT22;38063;53.210;6.504;2022-09-27T11:05:10;10.70;99.90
52058;DHT22;38063;53.210;6.504;2022-09-27T11:07:50;10.60;99.90
52058;DHT22;38063;53.210;6.504;2022-09-27T11:10:34;10.60;99.90
52058;DHT22;38063;53.210;6.504;2022-09-27T11:15:56;10.40;99.90
52058;DHT22;38063;53.210;6.504;2022-09-27T11:30:20;10.40;99.90
52058;DHT22;38063;53.210;6.504;2022-09-27T11:38:35;10.80;99.90
52058;DHT22;38063;53.210;6.504;2022-09-27T11:50:19;12.50;99.90
52058;DHT22;38063;53.210;6.504;2022-09-27T11:56:00;12.80;99.90
52058;DHT22;38063;53.210;6.504;2022-09-27T12:06:35;11.60;99.90
52058;DHT22;38063;53.210;6.504;2022-09-27T12:09:10;11.50;99.90
52058;DHT22;38063;53.210;6.504;2022-09-27T12:11:50;11.30;99.90
52058;DHT22;38063;53.210;6.504;2022-09-27T12:14:18;11.30;99.90
52058;DHT22;38063;53.210;6.504;2022-09-27T12:16:47;11.20;99.90
52058;DHT22;38063;53.210;6.504;2022-09-27T12:19:20;11.30;99.90
52058;DHT22;38063;53.210;6.504;2022-09-27T12:21:47;11.30;99.90
52058;DHT22;38063;53.210;6.504;2022-09-27T12:24:21;11.50;99.90
52058;DHT22;38063;53.210;6.504;2022-09-27T12:26:57;11.40;99.90
52058;DHT22;38063;53.210;6.504;2022-09-27T12:29:32;11.40;99.90
52058;DHT22;38063;53.210;6.504;2022-09-27T12:37:23;11.80;99.90
52058;DHT22;38063;53.210;6.504;2022-09-27T12:42:35;11.90;99.90
52058;DHT22;38063;53.210;6.504;2022-09-27T12:45:01;12.00;99.90
52058;DHT22;38063;53.210;6.504;2022-09-27T12:51:02;11.90;99.90
52058;DHT22;38063;53.210;6.504;2022-09-27T13:02:59;12.00;99.90
52058;DHT22;38063;53.210;6.504;2022-09-27T13:10:49;12.10;99.90
52058;DHT22;38063;53.210;6.504;2022-09-27T13:13:19;12.10;99.90
52058;DHT22;38063;53.210;6.504;2022-09-27T13:15:47;12.20;99.90
52058;DHT22;38063;53.210;6.504;2022-09-27T13:21:05;12.40;99.90
52058;DHT22;38063;53.210;6.504;2022-09-27T13:25:58;12.70;99.90
52058;DHT22;38063;53.210;6.504;2022-09-27T13:30:57;12.10;99.90
52058;DHT22;38063;53.210;6.504;2022-09-27T13:33:39;11.80;99.90
52058;DHT22;38063;53.210;6.504;2022-09-27T13:46:54;10.90;99.90
52058;DHT22;38063;53.210;6.504;2022-09-27T13:49:32;10.80;99.90
52058;DHT22;38063;53.210;6.504;2022-09-27T13:54:55;10.80;99.90
52058;DHT22;38063;53.210;6.504;2022-09-27T14:00:03;10.90;99.90
52058;DHT22;38063;53.210;6.504;2022-09-27T14:02:38;10.90;99.90
52058;DHT22;38063;53.210;6.504;2022-09-27T14:05:11;11.10;99.90
52058;DHT22;38063;53.210;6.504;2022-09-27T14:07:42;11.20;99.90
52058;DHT22;38063;53.210;6.504;2022-09-27T14:10:14;11.20;99.90
52058;DHT22;38063;53.210;6.504;2022-09-27T14:12:42;11.20;99.90
52058;DHT22;38063;53.210;6.504;2022-09-27T14:15:16;11.20;99.90
52058;DHT22;38063;53.210;6.504;2022-09-27T14:17:43;11.10;99.90
52058;DHT22;38063;53.210;6.504;2022-09-27T14:20:40;10.90;99.90
52058;DHT22;38063;53.210;6.504;2022-09-27T14:23:16;10.70;99.90
52058;DHT22;38063;53.210;6.504;2022-09-27T14:25:46;10.60;99.90
52058;DHT22;38063;53.210;6.504;2022-09-27T14:28:25;10.60;99.90
52058;DHT22;38063;53.210;6.504;2022-09-27T14:31:14;10.50;99.90
52058;DHT22;38063;53.210;6.504;2022-09-27T14:33:42;10.50;99.90
52058;DHT22;38063;53.210;6.504;2022-09-27T14:36:28;10.40;99.90
52058;DHT22;38063;53.210;6.504;2022-09-27T14:39:34;10.50;99.90
52058;DHT22;38063;53.210;6.504;2022-09-27T14:42:04;10.60;99.90
52058;DHT22;38063;53.210;6.504;2022-09-27T14:44:43;10.60;99.90
52058;DHT22;38063;53.210;6.504;2022-09-27T14:47:24;10.70;99.90
52058;DHT22;38063;53.210;6.504;2022-09-27T14:50:01;10.80;99.90
52058;DHT22;38063;53.210;6.504;2022-09-27T14:52:32;10.80;99.90
52058;DHT22;38063;53.210;6.504;2022-09-27T14:55:15;10.90;99.90
52058;DHT22;38063;53.210;6.504;2022-09-27T14:57:50;10.90;99.90
52058;DHT22;38063;53.210;6.504;2022-09-27T15:00:18;10.80;99.90
52058;DHT22;38063;53.210;6.504;2022-09-27T15:02:46;10.90;99.90
52058;DHT22;38063;53.210;6.504;2022-09-27T15:05:17;10.80;99.90
52058;DHT22;38063;53.210;6.504;2022-09-27T15:07:45;10.80;99.90
52058;DHT22;38063;53.210;6.504;2022-09-27T15:10:19;10.70;99.90
52058;DHT22;38063;53.210;6.504;2022-09-27T15:12:48;10.70;99.90
52058;DHT22;38063;53.210;6.504;2022-09-27T15:15:18;10.60;99.90
52058;DHT22;38063;53.210;6.504;2022-09-27T15:17:46;10.60;99.90
52058;DHT22;38063;53.210;6.504;2022-09-27T15:20:33;10.60;99.90
52058;DHT22;38063;53.210;6.504;2022-09-27T15:23:03;10.60;99.90
52058;DHT22;38063;53.210;6.504;2022-09-27T15:25:40;10.60;99.90
52058;DHT22;38063;53.210;6.504;2022-09-27T15:30:46;10.60;99.90
52058;DHT22;38063;53.210;6.504;2022-09-27T15:33:27;10.60;99.90
52058;DHT22;38063;53.210;6.504;2022-09-27T15:36:01;10.70;99.90
52058;DHT22;38063;53.210;6.504;2022-09-27T15:40:58;10.70;99.90
52058;DHT22;38063;53.210;6.504;2022-09-27T15:43:36;10.70;99.90
52058;DHT22;38063;53.210;6.504;2022-09-27T15:54:10;10.70;99.90
52058;DHT22;38063;53.210;6.504;2022-09-27T15:56:38;10.70;99.90
52058;DHT22;38063;53.210;6.504;2022-09-27T15:59:04;10.70;99.90
52058;DHT22;38063;53.210;6.504;2022-09-27T16:01:32;10.70;99.90
52058;DHT22;38063;53.210;6.504;2022-09-27T16:03:58;10.70;99.90
52058;DHT22;38063;53.210;6.504;2022-09-27T16:06:26;10.70;99.90
52058;DHT22;38063;53.210;6.504;2022-09-27T16:08:52;10.70;99.90
52058;DHT22;38063;53.210;6.504;2022-09-27T16:11:17;10.70;99.90
52058;DHT22;38063;53.210;6.504;2022-09-27T16:13:43;10.70;99.90
52058;DHT22;38063;53.210;6.504;2022-09-27T16:16:15;10.70;99.90
52058;DHT22;38063;53.210;6.504;2022-09-27T16:18:42;10.80;99.90
52058;DHT22;38063;53.210;6.504;2022-09-27T16:21:09;10.70;99.90
52058;DHT22;38063;53.210;6.504;2022-09-27T16:23:34;10.70;99.90
52058;DHT22;38063;53.210;6.504;2022-09-27T16:26:00;10.70;99.90
52058;DHT22;38063;53.210;6.504;2022-09-27T16:28:26;10.70;99.90
52058;DHT22;38063;53.210;6.504;2022-09-27T16:30:51;10.70;99.90
52058;DHT22;38063;53.210;6.504;2022-09-27T16:33:17;10.70;99.90
52058;DHT22;38063;53.210;6.504;2022-09-27T16:35:43;10.60;99.90
52058;DHT22;38063;53.210;6.504;2022-09-27T16:38:09;10.70;99.90
52058;DHT22;38063;53.210;6.504;2022-09-27T16:40:35;10.60;99.90
52058;DHT22;38063;53.210;6.504;2022-09-27T16:43:01;10.60;99.90
52058;DHT22;38063;53.210;6.504;2022-09-27T16:45:29;10.60;99.90
52058;DHT22;38063;53.210;6.504;2022-09-27T16:47:58;10.60;99.90
52058;DHT22;38063;53.210;6.504;2022-09-27T16:50:24;10.50;99.90
52058;DHT22;38063;53.210;6.504;2022-09-27T16:53:08;10.40;99.90
52058;DHT22;38063;53.210;6.504;2022-09-27T16:55:35;10.30;99.90
52058;DHT22;38063;53.210;6.504;2022-09-27T16:58:01;10.20;99.90
52058;DHT22;38063;53.210;6.504;2022-09-27T17:00:30;10.10;99.90
52058;DHT22;38063;53.210;6.504;2022-09-27T17:03:00;10.00;99.90
52058;DHT22;38063;53.210;6.504;2022-09-27T17:05:26;9.90;99.90
52058;DHT22;38063;53.210;6.504;2022-09-27T17:07:52;9.80;99.90
52058;DHT22;38063;53.210;6.504;2022-09-27T17:10:19;9.70;99.90
52058;DHT22;38063;53.210;6.504;2022-09-27T17:12:45;9.60;99.90
52058;DHT22;38063;53.210;6.504;2022-09-27T17:15:14;9.50;99.90
52058;DHT22;38063;53.210;6.504;2022-09-27T17:17:41;9.40;99.90
52058;DHT22;38063;53.210;6.504;2022-09-27T17:20:06;9.40;99.90
52058;DHT22;38063;53.210;6.504;2022-09-27T17:22:32;9.30;99.90
52058;DHT22;38063;53.210;6.504;2022-09-27T17:24:58;9.30;99.90
52058;DHT22;38063;53.210;6.504;2022-09-27T17:27:24;9.20;99.90
52058;DHT22;38063;53.210;6.504;2022-09-27T17:29:53;9.10;99.90
52058;DHT22;38063;53.210;6.504;2022-09-27T17:32:18;9.10;99.90
52058;DHT22;38063;53.210;6.504;2022-09-27T17:34:50;9.00;99.90
52058;DHT22;38063;53.210;6.504;2022-09-27T17:37:15;9.00;99.90
52058;DHT22;38063;53.210;6.504;2022-09-27T17:39:41;8.90;99.90
52058;DHT22;38063;53.210;6.504;2022-09-27T17:42:07;8.90;99.90
52058;DHT22;38063;53.210;6.504;2022-09-27T17:44:33;8.80;99.90
52058;DHT22;38063;53.210;6.504;2022-09-27T17:46:59;8.80;99.90
52058;DHT22;38063;53.210;6.504;2022-09-27T17:49:43;8.70;99.90
52058;DHT22;38063;53.210;6.504;2022-09-27T17:52:27;8.70;99.90
52058;DHT22;38063;53.210;6.504;2022-09-27T17:54:54;8.70;99.90
52058;DHT22;38063;53.210;6.504;2022-09-27T17:57:21;8.70;99.90
52058;DHT22;38063;53.210;6.504;2022-09-27T17:59:47;8.60;99.90
52058;DHT22;38063;53.210;6.504;2022-09-27T18:02:13;8.60;99.90
52058;DHT22;38063;53.210;6.504;2022-09-27T18:04:38;8.50;99.90
52058;DHT22;38063;53.210;6.504;2022-09-27T18:07:04;8.50;99.90
52058;DHT22;38063;53.210;6.504;2022-09-27T18:09:29;8.50;99.90
52058;DHT22;38063;53.210;6.504;2022-09-27T18:11:55;8.50;99.90
52058;DHT22;38063;53.210;6.504;2022-09-27T18:14:22;8.50;99.90
52058;DHT22;38063;53.210;6.504;2022-09-27T18:16:50;8.50;99.90
52058;DHT22;38063;53.210;6.504;2022-09-27T18:19:18;8.50;99.90
52058;DHT22;38063;53.210;6.504;2022-09-27T18:21:44;8.40;99.90
52058;DHT22;38063;53.210;6.504;2022-09-27T18:24:10;8.50;99.90
52058;DHT22;38063;53.210;6.504;2022-09-27T18:26:36;8.40;99.90
52058;DHT22;38063;53.210;6.504;2022-09-27T18:29:09;8.50;99.90
52058;DHT22;38063;53.210;6.504;2022-09-27T18:31:35;8.50;99.90
52058;DHT22;38063;53.210;6.504;2022-09-27T18:34:01;8.50;99.90
52058;DHT22;38063;53.210;6.504;2022-09-27T18:36:27;8.50;99.90
52058;DHT22;38063;53.210;6.504;2022-09-27T18:38:57;8.50;99.90
52058;DHT22;38063;53.210;6.504;2022-09-27T18:41:25;8.50;99.90
52058;DHT22;38063;53.210;6.504;2022-09-27T18:43:56;8.50;99.90
52058;DHT22;38063;53.210;6.504;2022-09-27T18:46:25;8.50;99.90
52058;DHT22;38063;53.210;6.504;2022-09-27T18:48:51;8.50;99.90
52058;DHT22;38063;53.210;6.504;2022-09-27T18:51:19;8.50;99.90
52058;DHT22;38063;53.210;6.504;2022-09-27T18:53:46;8.50;99.90
52058;DHT22;38063;53.210;6.504;2022-09-27T18:56:15;8.50;99.90